createdAt,value
2019-05-21T00:00:00.699Z,981.52
2019-05-21T00:01:00.743Z,981.57
2019-05-21T00:02:00.785Z,981.45
2019-05-21T00:03:00.896Z,981.44
2019-05-21T00:04:00.871Z,981.44
2019-05-21T00:05:00.912Z,981.46
2019-05-21T00:06:00.956Z,981.60
2019-05-21T00:07:00.997Z,981.69
2019-05-21T00:08:01.035Z,981.68
2019-05-21T00:09:01.084Z,981.76
2019-05-21T00:10:01.122Z,981.79
2019-05-21T00:11:01.175Z,981.83
2019-05-21T00:12:01.235Z,981.86
2019-05-21T00:13:01.346Z,981.68
2019-05-21T00:14:01.297Z,981.54
2019-05-21T00:15:01.333Z,981.43
2019-05-21T00:16:01.372Z,981.49
2019-05-21T00:17:01.413Z,981.44
2019-05-21T00:18:01.454Z,981.37
2019-05-21T00:19:01.498Z,981.39
2019-05-21T00:20:01.538Z,981.20
2019-05-21T00:21:01.583Z,980.97
2019-05-21T00:22:01.622Z,980.97
2019-05-21T00:23:01.699Z,980.95
2019-05-21T00:24:01.705Z,980.91
2019-05-21T00:25:01.777Z,980.91
2019-05-21T00:26:01.799Z,980.94
2019-05-21T00:27:01.832Z,980.84
2019-05-21T00:28:01.881Z,980.79
2019-05-21T00:29:01.926Z,980.69
2019-05-21T00:30:01.967Z,980.68
2019-05-21T00:31:02.023Z,980.76
2019-05-21T00:32:02.046Z,980.75
2019-05-21T00:33:02.106Z,980.80
2019-05-21T00:34:02.134Z,980.91
2019-05-21T00:35:02.167Z,980.88
2019-05-21T00:36:02.223Z,981.02
2019-05-21T00:37:02.251Z,981.07
2019-05-21T00:38:02.294Z,981.11
2019-05-21T00:39:02.337Z,981.21
2019-05-21T00:40:02.387Z,981.27
2019-05-21T00:41:02.418Z,981.29
2019-05-21T00:42:02.499Z,981.19
2019-05-21T00:43:02.526Z,981.23
2019-05-21T00:44:02.549Z,981.27
2019-05-21T00:45:02.587Z,981.28
2019-05-21T00:46:02.624Z,981.10
2019-05-21T00:47:02.667Z,981.02
2019-05-21T00:48:05.687Z,980.97
2019-05-21T00:49:02.844Z,980.88
2019-05-21T00:50:02.802Z,980.80
2019-05-21T00:51:02.832Z,980.90
2019-05-21T00:52:08.261Z,981.03
2019-05-21T00:53:02.916Z,981.00
2019-05-21T00:54:02.958Z,980.97
2019-05-21T00:55:03.000Z,981.04
2019-05-21T00:56:03.050Z,981.08
2019-05-21T00:57:03.084Z,981.10
2019-05-21T00:58:03.125Z,981.18
2019-05-21T00:59:03.170Z,981.21
2019-05-21T01:00:03.287Z,981.31
2019-05-21T01:01:03.251Z,981.35
2019-05-21T01:02:03.298Z,981.34
2019-05-21T01:03:03.331Z,981.45
2019-05-21T01:04:03.381Z,981.52
2019-05-21T01:05:03.419Z,981.46
2019-05-21T01:06:03.456Z,981.44
2019-05-21T01:07:03.512Z,981.45
2019-05-21T01:08:03.543Z,981.45
2019-05-21T01:09:03.582Z,981.35
2019-05-21T01:10:03.623Z,981.32
2019-05-21T01:11:03.683Z,981.32
2019-05-21T01:12:03.716Z,981.13
2019-05-21T01:13:03.757Z,981.06
2019-05-21T01:14:03.885Z,981.12
2019-05-21T01:15:03.834Z,981.10
2019-05-21T01:16:03.897Z,981.06
2019-05-21T01:17:03.917Z,980.91
2019-05-21T01:18:03.955Z,981.00
2019-05-21T01:19:03.998Z,981.04
2019-05-21T01:20:04.045Z,981.03
2019-05-21T01:21:04.094Z,980.85
2019-05-21T01:22:04.125Z,980.84
2019-05-21T01:23:04.164Z,980.87
2019-05-21T01:24:04.206Z,980.88
2019-05-21T01:25:04.250Z,980.83
2019-05-21T01:26:04.290Z,980.82
2019-05-21T01:27:04.335Z,980.83
2019-05-21T01:28:04.385Z,980.77
2019-05-21T01:29:04.421Z,980.68
2019-05-21T01:30:04.461Z,980.68
2019-05-21T01:31:04.498Z,980.78
2019-05-21T01:32:04.561Z,980.79
2019-05-21T01:33:04.598Z,980.88
2019-05-21T01:34:04.627Z,980.89
2019-05-21T01:35:16.561Z,980.81
2019-05-21T01:36:04.709Z,980.79
2019-05-21T01:37:04.755Z,980.71
2019-05-21T01:38:04.790Z,980.59
2019-05-21T01:39:04.835Z,980.60
2019-05-21T01:40:04.878Z,980.57
2019-05-21T01:41:04.918Z,980.60
2019-05-21T01:42:04.960Z,980.53
2019-05-21T01:43:04.998Z,980.56
2019-05-21T01:44:05.040Z,980.49
2019-05-21T01:45:05.142Z,980.44
2019-05-21T01:46:05.134Z,980.25
2019-05-21T01:47:05.165Z,980.16
2019-05-21T01:48:05.213Z,980.08
2019-05-21T01:49:05.251Z,980.12
2019-05-21T01:50:05.298Z,980.13
2019-05-21T01:51:05.331Z,980.08
2019-05-21T01:52:05.391Z,980.12
2019-05-21T01:53:05.415Z,980.20
2019-05-21T01:54:05.456Z,980.27
2019-05-21T01:55:05.499Z,980.26
2019-05-21T01:56:05.540Z,980.27
2019-05-21T01:57:05.588Z,980.24
2019-05-21T01:58:05.624Z,980.19
2019-05-21T01:59:05.667Z,980.15
2019-05-21T02:00:05.707Z,980.16
2019-05-21T02:01:05.861Z,980.18
2019-05-21T02:02:05.793Z,980.23
2019-05-21T02:03:05.839Z,980.27
2019-05-21T02:04:05.873Z,980.30
2019-05-21T02:05:05.916Z,980.35
2019-05-21T02:06:05.956Z,980.36
2019-05-21T02:07:05.999Z,980.35
2019-05-21T02:08:06.040Z,980.37
2019-05-21T02:09:06.083Z,980.42
2019-05-21T02:10:06.129Z,980.46
2019-05-21T02:11:06.168Z,980.54
2019-05-21T02:12:06.205Z,980.52
2019-05-21T02:13:06.246Z,980.60
2019-05-21T02:14:06.294Z,980.62
2019-05-21T02:15:06.327Z,980.69
2019-05-21T02:16:06.382Z,980.71
2019-05-21T02:17:06.412Z,980.72
2019-05-21T02:18:06.452Z,980.71
2019-05-21T02:19:06.492Z,980.73
2019-05-21T02:20:06.545Z,980.73
2019-05-21T02:21:06.620Z,980.70
2019-05-21T02:22:06.618Z,980.71
2019-05-21T02:23:06.659Z,980.59
2019-05-21T02:24:06.718Z,980.64
2019-05-21T02:25:06.744Z,980.61
2019-05-21T02:26:06.785Z,980.61
2019-05-21T02:27:06.985Z,980.62
2019-05-21T02:28:06.875Z,980.59
2019-05-21T02:29:06.918Z,980.58
2019-05-21T02:30:08.483Z,980.53
2019-05-21T02:31:06.992Z,980.53
2019-05-21T02:32:07.047Z,980.49
2019-05-21T02:33:07.075Z,980.51
2019-05-21T02:34:07.119Z,980.47
2019-05-21T02:35:07.163Z,980.46
2019-05-21T02:36:07.201Z,980.50
2019-05-21T02:37:07.243Z,980.57
2019-05-21T02:38:07.293Z,980.63
2019-05-21T02:39:07.328Z,980.65
2019-05-21T02:40:07.373Z,980.65
2019-05-21T02:41:07.409Z,980.64
2019-05-21T02:42:07.451Z,980.62
2019-05-21T02:43:07.489Z,980.60
2019-05-21T02:44:07.536Z,980.55
2019-05-21T02:45:07.570Z,980.48
2019-05-21T02:46:07.613Z,980.51
2019-05-21T02:47:07.657Z,980.44
2019-05-21T02:48:07.701Z,980.38
2019-05-21T02:49:07.747Z,980.25
2019-05-21T02:50:07.794Z,980.30
2019-05-21T02:51:07.820Z,980.38
2019-05-21T02:52:07.864Z,980.40
2019-05-21T02:53:07.903Z,980.40
2019-05-21T02:54:07.942Z,980.48
2019-05-21T02:55:07.983Z,980.57
2019-05-21T02:56:08.025Z,980.63
2019-05-21T02:57:08.067Z,980.66
2019-05-21T02:58:08.107Z,980.78
2019-05-21T02:59:08.149Z,980.89
2019-05-21T03:00:08.192Z,980.92
2019-05-21T03:01:08.250Z,980.86
2019-05-21T03:02:08.283Z,980.87
2019-05-21T03:03:08.314Z,980.89
2019-05-21T03:04:08.360Z,980.84
2019-05-21T03:05:08.404Z,980.71
2019-05-21T03:06:14.415Z,980.61
2019-05-21T03:07:08.535Z,980.62
2019-05-21T03:08:08.524Z,980.65
2019-05-21T03:09:08.565Z,980.80
2019-05-21T03:10:08.608Z,980.81
2019-05-21T03:11:08.651Z,980.93
2019-05-21T03:12:08.687Z,980.89
2019-05-21T03:13:08.725Z,980.90
2019-05-21T03:14:08.770Z,980.96
2019-05-21T03:15:08.810Z,980.87
2019-05-21T03:16:08.854Z,980.92
2019-05-21T03:17:08.894Z,980.90
2019-05-21T03:18:08.934Z,980.78
2019-05-21T03:19:08.987Z,980.79
2019-05-21T03:20:09.014Z,980.76
2019-05-21T03:21:09.059Z,980.80
2019-05-21T03:22:09.099Z,980.84
2019-05-21T03:23:09.139Z,980.82
2019-05-21T03:24:09.183Z,980.84
2019-05-21T03:25:09.222Z,980.83
2019-05-21T03:26:09.275Z,980.91
2019-05-21T03:27:09.304Z,980.98
2019-05-21T03:28:09.403Z,980.93
2019-05-21T03:29:09.391Z,980.99
2019-05-21T03:30:09.432Z,981.03
2019-05-21T03:31:09.471Z,981.09
2019-05-21T03:32:09.512Z,981.08
2019-05-21T03:33:09.619Z,981.07
2019-05-21T03:34:09.596Z,981.10
2019-05-21T03:35:09.649Z,981.09
2019-05-21T03:36:09.677Z,981.12
2019-05-21T03:37:09.721Z,981.15
2019-05-21T03:38:09.766Z,981.08
2019-05-21T03:39:09.801Z,981.08
2019-05-21T03:40:09.964Z,981.21
2019-05-21T03:41:09.881Z,981.14
2019-05-21T03:42:09.928Z,981.16
2019-05-21T03:43:09.969Z,981.17
2019-05-21T03:44:10.027Z,981.15
2019-05-21T03:45:10.052Z,981.16
2019-05-21T03:46:10.090Z,981.16
2019-05-21T03:47:10.132Z,981.14
2019-05-21T03:48:10.173Z,981.15
2019-05-21T03:49:10.223Z,981.22
2019-05-21T03:50:10.253Z,981.22
2019-05-21T03:51:10.296Z,981.22
2019-05-21T03:52:10.340Z,981.26
2019-05-21T03:53:10.386Z,981.26
2019-05-21T03:54:10.425Z,981.28
2019-05-21T03:55:10.462Z,981.27
2019-05-21T03:56:10.505Z,981.20
2019-05-21T03:57:10.547Z,981.21
2019-05-21T03:58:10.597Z,981.26
2019-05-21T03:59:10.629Z,981.20
2019-05-21T04:00:10.670Z,981.09
2019-05-21T04:01:10.714Z,981.15
2019-05-21T04:02:10.772Z,981.17
2019-05-21T04:03:10.793Z,981.26
2019-05-21T04:04:10.894Z,981.25
2019-05-21T04:05:10.890Z,981.21
2019-05-21T04:06:10.919Z,981.16
2019-05-21T04:07:10.971Z,981.13
2019-05-21T04:08:10.999Z,981.15
2019-05-21T04:09:11.043Z,981.11
2019-05-21T04:10:11.082Z,981.09
2019-05-21T04:11:11.126Z,981.03
2019-05-21T04:12:11.169Z,981.05
2019-05-21T04:13:11.209Z,981.05
2019-05-21T04:14:11.250Z,981.16
2019-05-21T04:15:11.291Z,981.12
2019-05-21T04:16:11.331Z,981.11
2019-05-21T04:17:11.375Z,981.14
2019-05-21T04:18:11.415Z,981.07
2019-05-21T04:19:11.462Z,981.12
2019-05-21T04:20:11.505Z,981.14
2019-05-21T04:21:11.546Z,981.16
2019-05-21T04:22:11.581Z,981.18
2019-05-21T04:23:11.624Z,981.26
2019-05-21T04:24:11.665Z,981.25
2019-05-21T04:25:11.731Z,981.27
2019-05-21T04:26:11.753Z,981.25
2019-05-21T04:27:11.790Z,981.25
2019-05-21T04:28:11.834Z,981.29
2019-05-21T04:29:11.880Z,981.34
2019-05-21T04:30:12.014Z,981.33
2019-05-21T04:31:11.956Z,981.34
2019-05-21T04:32:12.009Z,981.36
2019-05-21T04:33:12.042Z,981.29
2019-05-21T04:34:12.081Z,981.29
2019-05-21T04:35:12.125Z,981.24
2019-05-21T04:36:12.177Z,981.18
2019-05-21T04:37:16.481Z,981.09
2019-05-21T04:38:12.244Z,981.06
2019-05-21T04:39:12.285Z,981.05
2019-05-21T04:40:12.327Z,981.02
2019-05-21T04:41:12.373Z,981.04
2019-05-21T04:42:12.414Z,981.04
2019-05-21T04:43:12.459Z,981.04
2019-05-21T04:44:12.497Z,981.01
2019-05-21T04:45:12.535Z,981.12
2019-05-21T04:46:12.577Z,981.18
2019-05-21T04:47:12.616Z,981.24
2019-05-21T04:48:12.660Z,981.33
2019-05-21T04:49:12.710Z,981.47
2019-05-21T04:50:12.742Z,981.57
2019-05-21T04:51:13.990Z,981.69
2019-05-21T04:52:12.923Z,981.79
2019-05-21T04:53:12.875Z,981.73
2019-05-21T04:54:12.914Z,981.74
2019-05-21T04:55:12.955Z,981.70
2019-05-21T04:56:12.992Z,981.80
2019-05-21T04:57:13.038Z,981.80
2019-05-21T04:58:13.073Z,981.80
2019-05-21T04:59:13.147Z,981.80
2019-05-21T05:00:13.162Z,981.71
2019-05-21T05:01:13.199Z,981.71
2019-05-21T05:02:13.242Z,981.68
2019-05-21T05:03:13.294Z,981.58
2019-05-21T05:04:13.327Z,981.61
2019-05-21T05:05:13.371Z,981.63
2019-05-21T05:06:13.405Z,981.67
2019-05-21T05:07:26.696Z,981.64
2019-05-21T05:08:13.500Z,981.65
2019-05-21T05:09:13.534Z,981.74
2019-05-21T05:10:13.573Z,981.72
2019-05-21T05:11:13.615Z,981.70
2019-05-21T05:12:13.657Z,981.67
2019-05-21T05:13:13.773Z,981.81
2019-05-21T05:14:13.739Z,981.60
2019-05-21T05:15:13.783Z,981.61
2019-05-21T05:16:13.840Z,981.64
2019-05-21T05:17:13.895Z,981.68
2019-05-21T05:18:13.905Z,981.61
2019-05-21T05:19:13.950Z,981.79
2019-05-21T05:20:13.987Z,981.78
2019-05-21T05:21:14.032Z,981.79
2019-05-21T05:22:14.073Z,981.88
2019-05-21T05:23:14.112Z,981.87
2019-05-21T05:24:14.241Z,981.95
2019-05-21T05:25:14.197Z,981.99
2019-05-21T05:26:14.277Z,982.04
2019-05-21T05:27:14.280Z,982.03
2019-05-21T05:28:14.321Z,982.15
2019-05-21T05:29:14.374Z,982.10
2019-05-21T05:30:14.407Z,982.20
2019-05-21T05:31:15.358Z,982.21
2019-05-21T05:32:14.486Z,982.18
2019-05-21T05:33:14.529Z,982.27
2019-05-21T05:34:14.589Z,982.25
2019-05-21T05:35:14.623Z,982.18
2019-05-21T05:36:14.663Z,982.11
2019-05-21T05:37:14.693Z,982.04
2019-05-21T05:38:14.735Z,982.04
2019-05-21T05:39:14.778Z,982.11
2019-05-21T05:40:14.926Z,982.12
2019-05-21T05:41:14.868Z,982.18
2019-05-21T05:42:14.901Z,982.27
2019-05-21T05:43:14.945Z,982.26
2019-05-21T05:44:15.011Z,982.36
2019-05-21T05:45:15.028Z,982.33
2019-05-21T05:46:15.130Z,982.34
2019-05-21T05:47:15.115Z,982.39
2019-05-21T05:48:15.152Z,982.41
2019-05-21T05:49:15.206Z,982.40
2019-05-21T05:50:15.239Z,982.38
2019-05-21T05:51:15.279Z,982.49
2019-05-21T05:52:15.319Z,982.54
2019-05-21T05:53:15.360Z,982.68
2019-05-21T05:54:15.406Z,982.69
2019-05-21T05:55:15.446Z,982.83
2019-05-21T05:56:15.491Z,982.88
2019-05-21T05:57:15.544Z,982.92
2019-05-21T05:58:15.570Z,982.86
2019-05-21T05:59:15.617Z,982.72
2019-05-21T06:00:15.654Z,982.65
2019-05-21T06:01:15.713Z,982.64
2019-05-21T06:02:15.738Z,982.66
2019-05-21T06:03:15.848Z,982.62
2019-05-21T06:04:15.921Z,982.65
2019-05-21T06:05:15.863Z,982.64
2019-05-21T06:06:15.903Z,982.64
2019-05-21T06:07:15.947Z,982.73
2019-05-21T06:08:15.988Z,982.72
2019-05-21T06:09:16.030Z,982.72
2019-05-21T06:10:16.073Z,982.62
2019-05-21T06:11:16.113Z,982.59
2019-05-21T06:12:16.157Z,982.59
2019-05-21T06:13:16.207Z,982.55
2019-05-21T06:14:16.262Z,982.60
2019-05-21T06:15:16.284Z,982.61
2019-05-21T06:16:16.326Z,982.65
2019-05-21T06:17:16.371Z,982.74
2019-05-21T06:18:16.410Z,982.91
2019-05-21T06:19:16.450Z,982.94
2019-05-21T06:20:16.497Z,982.92
2019-05-21T06:21:16.533Z,982.97
2019-05-21T06:22:16.576Z,982.93
2019-05-21T06:23:16.621Z,982.96
2019-05-21T06:24:16.659Z,982.96
2019-05-21T06:25:16.704Z,982.91
2019-05-21T06:26:16.744Z,982.98
2019-05-21T06:27:16.791Z,982.98
2019-05-21T06:28:16.829Z,982.99
2019-05-21T06:29:16.869Z,983.03
2019-05-21T06:30:16.915Z,983.05
2019-05-21T06:31:16.960Z,983.07
2019-05-21T06:32:16.996Z,983.13
2019-05-21T06:33:17.076Z,983.21
2019-05-21T06:34:17.080Z,983.26
2019-05-21T06:35:17.131Z,983.28
2019-05-21T06:36:17.251Z,983.31
2019-05-21T06:37:17.216Z,983.28
2019-05-21T06:38:18.453Z,983.27
2019-05-21T06:39:17.291Z,983.33
2019-05-21T06:40:17.340Z,983.33
2019-05-21T06:41:17.373Z,983.26
2019-05-21T06:42:17.422Z,983.21
2019-05-21T06:43:17.461Z,983.19
2019-05-21T06:44:17.501Z,983.17
2019-05-21T06:45:17.551Z,983.20
2019-05-21T06:46:17.587Z,983.21
2019-05-21T06:47:17.625Z,983.19
2019-05-21T06:48:17.668Z,983.13
2019-05-21T06:49:17.718Z,983.08
2019-05-21T06:50:17.754Z,983.08
2019-05-21T06:51:17.964Z,983.19
2019-05-21T06:52:17.840Z,983.05
2019-05-21T06:53:17.884Z,982.67
2019-05-21T06:54:17.935Z,982.46
2019-05-21T06:55:17.964Z,982.31
2019-05-21T06:56:18.010Z,982.10
2019-05-21T06:57:18.051Z,982.08
2019-05-21T06:58:18.100Z,982.06
2019-05-21T06:59:18.137Z,982.08
2019-05-21T07:00:18.177Z,982.06
2019-05-21T07:01:18.228Z,981.96
2019-05-21T07:02:18.269Z,981.94
2019-05-21T07:03:18.304Z,982.04
2019-05-21T07:04:18.348Z,982.05
2019-05-21T07:05:18.492Z,982.10
2019-05-21T07:06:18.438Z,982.22
2019-05-21T07:07:18.784Z,982.26
2019-05-21T07:08:33.661Z,982.36
2019-05-21T07:09:18.560Z,982.48
2019-05-21T07:10:18.601Z,982.64
2019-05-21T07:11:18.647Z,982.71
2019-05-21T07:12:18.687Z,982.74
2019-05-21T07:13:18.722Z,982.75
2019-05-21T07:14:18.789Z,982.84
2019-05-21T07:15:18.802Z,982.87
2019-05-21T07:16:18.845Z,983.04
2019-05-21T07:17:18.890Z,983.29
2019-05-21T07:18:18.931Z,983.40
2019-05-21T07:19:18.971Z,983.40
2019-05-21T07:20:19.013Z,983.57
2019-05-21T07:21:19.054Z,983.75
2019-05-21T07:22:19.101Z,983.96
2019-05-21T07:23:19.139Z,984.49
2019-05-21T07:24:19.184Z,984.95
2019-05-21T07:25:19.223Z,985.40
2019-05-21T07:26:19.358Z,985.61
2019-05-21T07:27:19.318Z,985.83
2019-05-21T07:28:19.375Z,986.01
2019-05-21T07:29:19.390Z,986.05
2019-05-21T07:30:19.439Z,985.91
2019-05-21T07:31:19.527Z,985.81
2019-05-21T07:32:19.531Z,985.72
2019-05-21T07:33:19.559Z,985.56
2019-05-21T07:34:19.603Z,985.48
2019-05-21T07:35:19.646Z,985.43
2019-05-21T07:36:19.686Z,985.31
2019-05-21T07:37:19.735Z,984.96
2019-05-21T07:38:19.771Z,984.80
2019-05-21T07:39:19.826Z,984.72
2019-05-21T07:40:19.855Z,984.66
2019-05-21T07:41:20.463Z,984.42
2019-05-21T07:42:19.939Z,984.21
2019-05-21T07:43:19.996Z,984.03
2019-05-21T07:44:20.026Z,983.88
2019-05-21T07:45:20.077Z,983.88
2019-05-21T07:46:20.113Z,983.90
2019-05-21T07:47:20.157Z,983.82
2019-05-21T07:48:20.207Z,983.73
2019-05-21T07:49:20.239Z,983.53
2019-05-21T07:50:20.284Z,983.49
2019-05-21T07:51:20.328Z,983.60
2019-05-21T07:52:20.366Z,983.65
2019-05-21T07:53:20.410Z,983.84
2019-05-21T07:54:20.450Z,984.00
2019-05-21T07:55:20.492Z,983.93
2019-05-21T07:56:20.541Z,983.89
2019-05-21T07:57:20.578Z,983.86
2019-05-21T07:58:20.627Z,983.92
2019-05-21T07:59:20.714Z,983.90
2019-05-21T08:00:20.704Z,983.89
2019-05-21T08:01:20.761Z,983.73
2019-05-21T08:02:20.789Z,983.68
2019-05-21T08:03:20.836Z,983.76
2019-05-21T08:04:20.874Z,983.84
2019-05-21T08:05:20.919Z,983.75
2019-05-21T08:06:20.970Z,983.77
2019-05-21T08:07:21.064Z,983.76
2019-05-21T08:08:21.174Z,983.83
2019-05-21T08:09:21.102Z,983.84
2019-05-21T08:10:21.140Z,983.80
2019-05-21T08:11:21.183Z,983.84
2019-05-21T08:12:37.153Z,983.75
2019-05-21T08:13:21.263Z,983.68
2019-05-21T08:14:21.304Z,983.50
2019-05-21T08:15:21.455Z,983.54
2019-05-21T08:16:21.385Z,983.58
2019-05-21T08:17:21.431Z,983.68
2019-05-21T08:18:21.484Z,983.87
2019-05-21T08:19:21.927Z,983.99
2019-05-21T08:20:21.565Z,984.18
2019-05-21T08:21:21.602Z,984.35
2019-05-21T08:22:21.794Z,984.46
2019-05-21T08:23:21.691Z,984.70
2019-05-21T08:24:21.729Z,984.76
2019-05-21T08:25:21.776Z,984.72
2019-05-21T08:26:21.817Z,984.66
2019-05-21T08:27:21.852Z,984.60
2019-05-21T08:28:21.909Z,984.57
2019-05-21T08:29:21.943Z,984.52
2019-05-21T08:30:21.999Z,984.59
2019-05-21T08:31:22.026Z,984.56
2019-05-21T08:32:22.063Z,984.63
2019-05-21T08:33:22.107Z,984.78
2019-05-21T08:34:22.152Z,984.82
2019-05-21T08:35:22.203Z,984.99
2019-05-21T08:36:22.359Z,985.14
2019-05-21T08:37:22.280Z,985.41
2019-05-21T08:38:22.334Z,985.59
2019-05-21T08:39:28.633Z,985.80
2019-05-21T08:40:22.407Z,986.00
2019-05-21T08:41:22.455Z,985.97
2019-05-21T08:42:22.489Z,986.08
2019-05-21T08:43:22.540Z,986.10
2019-05-21T08:44:22.576Z,986.28
2019-05-21T08:45:22.621Z,986.44
2019-05-21T08:46:22.676Z,986.65
2019-05-21T08:47:22.746Z,986.72
2019-05-21T08:48:22.748Z,986.86
2019-05-21T08:49:22.794Z,987.14
2019-05-21T08:50:22.833Z,987.23
2019-05-21T08:51:22.875Z,987.13
2019-05-21T08:52:22.920Z,987.07
2019-05-21T08:53:22.960Z,986.89
2019-05-21T08:54:23.005Z,986.56
2019-05-21T08:55:23.048Z,986.29
2019-05-21T08:56:23.093Z,986.18
2019-05-21T08:57:23.141Z,985.86
2019-05-21T08:58:23.177Z,985.64
2019-05-21T08:59:23.229Z,985.35
2019-05-21T09:00:23.266Z,985.28
2019-05-21T09:01:23.312Z,985.16
2019-05-21T09:02:23.349Z,984.95
2019-05-21T09:03:23.395Z,984.89
2019-05-21T09:04:23.441Z,984.76
2019-05-21T09:05:23.487Z,984.74
2019-05-21T09:06:23.525Z,984.71
2019-05-21T09:07:23.569Z,984.85
2019-05-21T09:08:23.610Z,984.95
2019-05-21T09:09:23.657Z,985.14
2019-05-21T09:10:23.699Z,985.07
2019-05-21T09:11:23.763Z,985.03
2019-05-21T09:12:23.786Z,984.95
2019-05-21T09:13:23.839Z,985.11
2019-05-21T09:14:23.887Z,985.09
2019-05-21T09:15:23.914Z,985.07
2019-05-21T09:16:24.056Z,985.15
2019-05-21T09:17:24.009Z,985.16
2019-05-21T09:18:24.047Z,985.14
2019-05-21T09:19:24.086Z,985.02
2019-05-21T09:20:24.130Z,985.05
2019-05-21T09:21:24.173Z,985.23
2019-05-21T09:22:24.215Z,985.33
2019-05-21T09:23:24.261Z,985.46
2019-05-21T09:24:24.303Z,985.54
2019-05-21T09:25:24.351Z,985.43
2019-05-21T09:26:24.396Z,985.26
2019-05-21T09:27:24.437Z,985.33
2019-05-21T09:28:24.493Z,985.24
2019-05-21T09:29:24.536Z,985.22
2019-05-21T09:30:24.713Z,985.35
2019-05-21T09:31:24.617Z,985.37
2019-05-21T09:32:24.653Z,985.37
2019-05-21T09:33:24.701Z,985.40
2019-05-21T09:34:24.736Z,985.54
2019-05-21T09:35:24.832Z,985.62
2019-05-21T09:36:25.400Z,985.65
2019-05-21T09:37:24.873Z,985.56
2019-05-21T09:38:24.910Z,985.37
2019-05-21T09:39:24.962Z,985.35
2019-05-21T09:40:25.006Z,985.35
2019-05-21T09:41:25.043Z,985.19
2019-05-21T09:42:25.098Z,985.34
2019-05-21T09:43:25.127Z,985.61
2019-05-21T09:44:25.172Z,985.67
2019-05-21T09:45:25.226Z,985.67
2019-05-21T09:46:25.266Z,985.72
2019-05-21T09:47:25.299Z,985.73
2019-05-21T09:48:25.366Z,985.69
2019-05-21T09:49:25.452Z,985.66
2019-05-21T09:50:25.447Z,985.62
2019-05-21T09:51:25.486Z,985.64
2019-05-21T09:52:25.517Z,985.67
2019-05-21T09:53:25.571Z,985.76
2019-05-21T09:54:25.610Z,985.72
2019-05-21T09:55:25.648Z,985.63
2019-05-21T09:56:25.694Z,985.65
2019-05-21T09:57:25.730Z,985.67
2019-05-21T09:58:25.774Z,985.70
2019-05-21T09:59:25.824Z,985.88
2019-05-21T10:00:25.866Z,985.85
2019-05-21T10:01:25.910Z,985.94
2019-05-21T10:02:25.949Z,985.80
2019-05-21T10:03:26.002Z,985.79
2019-05-21T10:04:26.143Z,985.77
2019-05-21T10:05:26.080Z,985.71
2019-05-21T10:06:26.129Z,985.68
2019-05-21T10:07:39.204Z,985.71
2019-05-21T10:08:26.218Z,985.69
2019-05-21T10:09:26.259Z,985.66
2019-05-21T10:10:26.410Z,985.84
2019-05-21T10:11:26.337Z,985.80
2019-05-21T10:12:26.384Z,985.85
2019-05-21T10:13:26.426Z,985.85
2019-05-21T10:14:26.468Z,985.89
2019-05-21T10:15:26.529Z,985.90
2019-05-21T10:16:26.562Z,985.92
2019-05-21T10:17:26.597Z,986.11
2019-05-21T10:18:26.710Z,986.23
2019-05-21T10:19:26.679Z,986.18
2019-05-21T10:20:26.726Z,986.17
2019-05-21T10:21:27.029Z,986.11
2019-05-21T10:22:26.911Z,986.02
2019-05-21T10:23:26.863Z,985.89
2019-05-21T10:24:26.905Z,985.85
2019-05-21T10:25:26.944Z,985.86
2019-05-21T10:26:26.986Z,985.87
2019-05-21T10:27:27.029Z,985.91
2019-05-21T10:28:27.071Z,986.03
2019-05-21T10:29:27.115Z,986.08
2019-05-21T10:30:27.169Z,986.07
2019-05-21T10:31:27.200Z,986.11
2019-05-21T10:32:27.244Z,986.30
2019-05-21T10:33:27.295Z,986.28
2019-05-21T10:34:27.335Z,986.41
2019-05-21T10:35:27.373Z,986.52
2019-05-21T10:36:27.417Z,986.54
2019-05-21T10:37:27.465Z,986.46
2019-05-21T10:38:27.501Z,986.39
2019-05-21T10:39:27.549Z,986.28
2019-05-21T10:40:27.590Z,986.38
2019-05-21T10:41:27.639Z,986.52
2019-05-21T10:42:27.674Z,986.57
2019-05-21T10:43:27.718Z,986.60
2019-05-21T10:44:27.763Z,986.50
2019-05-21T10:45:27.819Z,986.47
2019-05-21T10:46:27.848Z,986.48
2019-05-21T10:47:27.896Z,986.61
2019-05-21T10:48:27.937Z,986.65
2019-05-21T10:49:27.983Z,986.56
2019-05-21T10:50:28.045Z,986.61
2019-05-21T10:51:28.071Z,986.47
2019-05-21T10:52:28.111Z,986.36
2019-05-21T10:53:28.318Z,986.23
2019-05-21T10:54:28.195Z,986.38
2019-05-21T10:55:28.241Z,986.34
2019-05-21T10:56:28.291Z,986.34
2019-05-21T10:57:28.333Z,986.40
2019-05-21T10:58:28.371Z,986.40
2019-05-21T10:59:28.435Z,986.44
2019-05-21T11:00:28.474Z,986.55
2019-05-21T11:01:28.503Z,986.55
2019-05-21T11:02:28.545Z,986.49
2019-05-21T11:03:28.590Z,986.57
2019-05-21T11:04:28.637Z,986.60
2019-05-21T11:05:29.088Z,986.67
2019-05-21T11:06:28.726Z,986.81
2019-05-21T11:07:28.785Z,986.82
2019-05-21T11:08:28.807Z,986.73
2019-05-21T11:09:28.872Z,986.73
2019-05-21T11:10:28.895Z,986.69
2019-05-21T11:11:28.943Z,986.65
2019-05-21T11:12:28.986Z,986.61
2019-05-21T11:13:29.078Z,986.66
2019-05-21T11:14:29.101Z,986.81
2019-05-21T11:15:29.128Z,986.90
2019-05-21T11:16:29.159Z,986.91
2019-05-21T11:17:29.203Z,987.01
2019-05-21T11:18:29.242Z,986.93
2019-05-21T11:19:29.288Z,986.84
2019-05-21T11:20:29.336Z,986.91
2019-05-21T11:21:29.375Z,986.74
2019-05-21T11:22:29.432Z,986.75
2019-05-21T11:23:29.460Z,986.73
2019-05-21T11:24:29.503Z,986.76
2019-05-21T11:25:29.558Z,986.79
2019-05-21T11:26:29.594Z,986.82
2019-05-21T11:27:29.785Z,986.81
2019-05-21T11:28:29.680Z,986.79
2019-05-21T11:29:29.756Z,986.84
2019-05-21T11:30:29.767Z,986.80
2019-05-21T11:31:29.827Z,986.80
2019-05-21T11:32:29.855Z,986.82
2019-05-21T11:33:29.898Z,986.84
2019-05-21T11:34:29.943Z,986.83
2019-05-21T11:35:29.989Z,986.87
2019-05-21T11:36:30.037Z,986.88
2019-05-21T11:37:30.081Z,986.88
2019-05-21T11:38:39.551Z,986.88
2019-05-21T11:39:30.164Z,986.81
2019-05-21T11:40:30.212Z,986.85
2019-05-21T11:41:30.248Z,986.89
2019-05-21T11:42:30.293Z,986.88
2019-05-21T11:43:30.335Z,986.84
2019-05-21T11:44:30.390Z,986.88
2019-05-21T11:45:32.716Z,986.85
2019-05-21T11:46:30.465Z,986.88
2019-05-21T11:47:30.511Z,986.87
2019-05-21T11:48:30.566Z,986.90
2019-05-21T11:49:30.611Z,986.90
2019-05-21T11:50:30.664Z,986.95
2019-05-21T11:51:30.684Z,986.99
2019-05-21T11:52:30.729Z,986.96
2019-05-21T11:53:32.040Z,987.00
2019-05-21T11:54:30.845Z,986.97
2019-05-21T11:55:30.866Z,987.04
2019-05-21T11:56:30.900Z,987.03
2019-05-21T11:57:30.967Z,987.13
2019-05-21T11:58:30.990Z,987.08
2019-05-21T11:59:31.032Z,987.10
2019-05-21T12:00:31.082Z,987.13
2019-05-21T12:01:31.118Z,987.12
2019-05-21T12:02:31.162Z,987.13
2019-05-21T12:03:31.203Z,987.16
2019-05-21T12:04:31.251Z,987.22
2019-05-21T12:05:31.298Z,987.24
2019-05-21T12:06:31.332Z,987.25
2019-05-21T12:07:31.378Z,987.34
2019-05-21T12:08:31.424Z,987.27
2019-05-21T12:09:31.473Z,987.26
2019-05-21T12:10:31.506Z,987.36
2019-05-21T12:11:31.553Z,987.38
2019-05-21T12:12:31.592Z,987.34
2019-05-21T12:13:31.640Z,987.41
2019-05-21T12:14:31.681Z,987.38
2019-05-21T12:15:31.737Z,987.38
2019-05-21T12:16:31.770Z,987.44
2019-05-21T12:17:31.809Z,987.40
2019-05-21T12:18:31.852Z,987.37
2019-05-21T12:19:31.904Z,987.42
2019-05-21T12:20:36.687Z,987.42
2019-05-21T12:21:32.088Z,987.49
2019-05-21T12:22:32.031Z,987.47
2019-05-21T12:23:32.070Z,987.48
2019-05-21T12:24:32.110Z,987.57
2019-05-21T12:25:32.162Z,987.53
2019-05-21T12:26:32.198Z,987.56
2019-05-21T12:27:32.240Z,987.54
2019-05-21T12:28:32.309Z,987.49